Time;durP1;ratioP1;P1;durP2;ratioP2;P2;SDS_P1;SDS_P2;PMS_P1;PMS_P2;Temp;Humidity;BMP_temperature;BMP_pressure;BME280_temperature;BME280_humidity;BME280_pressure;Samples;Min_cycle;Max_cycle;Signal;HPM_P1;HPM_P2
2022/09/13 00:00:21;;;;;;;11.45;7.00;;;19.60;99.90;;;;;;5032645;28;20501;-68
2022/09/13 00:02:46;;;;;;;8.15;6.70;;;19.50;99.90;;;;;;5033777;28;20113;-68
2022/09/13 00:05:12;;;;;;;8.63;6.55;;;19.50;99.90;;;;;;5033103;28;20040;-68
2022/09/13 00:07:38;;;;;;;8.25;7.07;;;19.40;99.90;;;;;;5033404;28;20052;-68
2022/09/13 00:10:04;;;;;;;8.07;6.65;;;19.50;99.90;;;;;;5033313;28;20021;-68
2022/09/13 00:12:29;;;;;;;10.07;7.47;;;19.40;99.90;;;;;;5033472;28;20049;-67
2022/09/13 00:14:55;;;;;;;9.27;8.20;;;19.40;99.90;;;;;;5033548;28;20085;-67
2022/09/13 00:17:21;;;;;;;8.48;6.55;;;19.40;99.90;;;;;;5030763;28;20035;-68
2022/09/13 00:19:47;;;;;;;8.13;6.50;;;19.40;99.90;;;;;;5033077;28;20014;-67
2022/09/13 00:22:13;;;;;;;8.93;6.57;;;19.40;99.90;;;;;;5033491;28;20390;-67
2022/09/13 00:24:38;;;;;;;7.05;6.07;;;19.40;99.90;;;;;;5032414;28;20021;-67
2022/09/13 00:27:04;;;;;;;6.70;6.10;;;19.40;99.90;;;;;;5032784;28;20033;-67
2022/09/13 00:29:30;;;;;;;9.80;6.05;;;19.40;99.90;;;;;;5032124;28;20029;-67
2022/09/13 00:31:56;;;;;;;7.93;5.65;;;19.50;99.90;;;;;;5033190;28;20048;-67
2022/09/13 00:34:22;;;;;;;6.47;5.70;;;19.40;99.90;;;;;;5033204;28;20106;-67
2022/09/13 00:36:47;;;;;;;6.65;6.03;;;19.50;99.90;;;;;;5032841;28;20049;-67
2022/09/13 00:39:13;;;;;;;7.10;6.40;;;19.50;99.90;;;;;;5032816;28;20017;-67
2022/09/13 00:41:39;;;;;;;8.68;5.97;;;19.50;99.90;;;;;;5032919;28;20111;-67
2022/09/13 00:44:43;;;;;;;8.07;6.35;;;19.40;99.90;;;;;;5033132;28;20101;-68
2022/09/13 00:47:11;;;;;;;7.80;6.85;;;19.40;99.90;;;;;;5029331;28;20413;-67
2022/09/13 00:49:41;;;;;;;8.20;7.18;;;19.40;99.90;;;;;;5032726;28;20022;-67
2022/09/13 00:52:11;;;;;;;6.20;5.70;;;19.40;99.90;;;;;;5032804;28;20020;-67
2022/09/13 00:54:49;;;;;;;6.45;5.85;;;19.50;99.90;;;;;;5032876;28;20021;-67
2022/09/13 00:57:18;;;;;;;7.20;5.63;;;19.40;99.90;;;;;;5031264;28;20033;-67
2022/09/13 00:59:49;;;;;;;7.25;5.95;;;19.50;99.90;;;;;;5033397;28;20021;-67
2022/09/13 01:02:14;;;;;;;8.43;6.03;;;19.50;99.90;;;;;;5031499;28;20445;-67
2022/09/13 01:04:41;;;;;;;7.45;5.55;;;19.50;99.90;;;;;;5033021;28;20034;-67
2022/09/13 01:07:10;;;;;;;6.10;5.60;;;19.50;99.90;;;;;;5030860;28;20028;-67
2022/09/13 01:09:38;;;;;;;6.78;5.95;;;19.40;99.90;;;;;;5033291;28;20029;-67
2022/09/13 01:12:17;;;;;;;8.60;6.20;;;19.40;99.90;;;;;;5032005;28;20542;-67
2022/09/13 01:14:45;;;;;;;6.90;6.20;;;19.40;99.90;;;;;;5013595;28;20364;-67
2022/09/13 01:17:11;;;;;;;7.35;6.65;;;19.40;99.90;;;;;;5016594;28;20516;-67
2022/09/13 01:19:36;;;;;;;7.38;5.85;;;19.40;99.90;;;;;;5032983;28;20017;-67
2022/09/13 01:22:17;;;;;;;8.65;5.90;;;19.40;99.90;;;;;;5032517;28;20060;-67
2022/09/13 01:25:22;;;;;;;9.27;6.50;;;19.40;99.90;;;;;;5032598;28;20060;-67
2022/09/13 01:28:18;;;;;;;8.35;5.50;;;19.40;99.90;;;;;;5023769;28;20179;-67
2022/09/13 01:31:24;;;;;;;7.07;5.47;;;19.40;99.90;;;;;;5032634;28;20032;-67
2022/09/13 01:33:55;;;;;;;6.47;5.85;;;19.30;99.90;;;;;;5031488;28;20037;-67
2022/09/13 01:36:45;;;;;;;7.35;5.72;;;19.30;99.90;;;;;;5032718;28;20037;-67
2022/09/13 01:39:23;;;;;;;6.38;5.47;;;19.30;99.90;;;;;;5031372;28;20030;-67
2022/09/13 01:42:01;;;;;;;6.53;5.72;;;19.40;99.90;;;;;;5031660;28;20367;-67
2022/09/13 01:44:47;;;;;;;8.93;5.80;;;19.30;99.90;;;;;;5031557;28;20017;-67
2022/09/13 01:47:36;;;;;;;7.18;5.78;;;19.30;99.90;;;;;;5031308;28;20161;-67
2022/09/13 01:50:45;;;;;;;6.00;5.50;;;19.30;99.90;;;;;;5032732;28;20479;-67
2022/09/13 01:53:28;;;;;;;10.05;5.78;;;19.30;99.90;;;;;;5031225;28;20025;-68
2022/09/13 01:56:11;;;;;;;6.28;5.75;;;19.30;99.90;;;;;;5030523;28;20052;-68
2022/09/13 01:58:47;;;;;;;7.05;5.47;;;19.30;99.90;;;;;;5032469;28;20025;-68
2022/09/13 02:01:20;;;;;;;6.45;5.85;;;19.40;99.90;;;;;;5032030;28;20053;-68
2022/09/13 02:03:54;;;;;;;;;;;19.40;99.90;;;;;;5032960;28;20448;-68
2022/09/13 02:06:24;;;;;;;5.70;5.20;;;19.40;99.90;;;;;;5032561;28;19927;-67
2022/09/13 02:09:00;;;;;;;7.28;5.35;;;19.40;99.90;;;;;;5032545;28;20022;-67
2022/09/13 02:11:26;;;;;;;12.48;5.93;;;19.40;99.90;;;;;;5032174;28;20038;-68
2022/09/13 02:14:01;;;;;;;6.32;5.18;;;19.40;99.90;;;;;;5031972;28;20037;-68
2022/09/13 02:16:32;;;;;;;6.47;5.20;;;19.40;99.90;;;;;;5032169;28;20021;-69
2022/09/13 02:19:06;;;;;;;8.38;5.25;;;19.40;99.90;;;;;;5032219;28;20088;-69
2022/09/13 02:21:43;;;;;;;5.82;4.93;;;19.40;99.90;;;;;;5032450;28;20071;-68
2022/09/13 02:24:25;;;;;;;7.80;4.95;;;19.40;99.90;;;;;;5031489;28;20026;-67
2022/09/13 02:26:53;;;;;;;9.17;5.33;;;19.40;99.90;;;;;;5030365;28;20363;-67
2022/09/13 02:29:23;;;;;;;10.23;5.05;;;19.50;99.90;;;;;;5031436;28;20417;-68
2022/09/13 02:31:55;;;;;;;8.38;5.43;;;19.50;99.90;;;;;;5031123;28;20104;-68
2022/09/13 02:34:24;;;;;;;7.38;5.53;;;19.50;99.90;;;;;;5031225;28;20126;-69
2022/09/13 02:36:53;;;;;;;10.65;4.72;;;19.60;99.90;;;;;;5032224;28;20021;-68
2022/09/13 02:39:23;;;;;;;7.97;4.97;;;19.60;99.90;;;;;;5030075;28;20441;-69
2022/09/13 02:42:06;;;;;;;6.55;4.90;;;19.50;99.90;;;;;;5030960;28;20040;-68
2022/09/13 02:44:45;;;;;;;7.85;4.97;;;19.60;99.90;;;;;;5030957;28;20022;-68
2022/09/13 02:47:43;;;;;;;5.97;4.88;;;19.50;99.90;;;;;;5031594;28;20052;-69
2022/09/13 02:50:24;;;;;;;9.50;5.30;;;19.50;99.90;;;;;;5032003;28;20021;-68
2022/09/13 02:53:00;;;;;;;5.78;4.30;;;19.50;99.90;;;;;;5032772;28;20104;-69
2022/09/13 02:55:48;;;;;;;6.97;5.80;;;19.60;99.90;;;;;;5034861;28;20120;-69
2022/09/13 02:58:45;;;;;;;7.78;5.10;;;19.60;99.90;;;;;;5035266;28;20067;-67
2022/09/13 03:01:11;;;;;;;6.28;4.88;;;19.60;99.90;;;;;;5035135;28;20051;-67
2022/09/13 03:03:37;;;;;;;5.57;4.63;;;19.50;99.90;;;;;;5035419;28;20032;-67
2022/09/13 03:06:03;;;;;;;5.95;5.10;;;19.40;99.90;;;;;;5035227;28;20018;-67
2022/09/13 03:08:29;;;;;;;6.18;5.10;;;19.40;99.90;;;;;;5035354;28;20037;-67
2022/09/13 03:11:02;;;;;;;6.20;5.13;;;19.40;99.90;;;;;;5034255;28;20032;-67
2022/09/13 03:13:27;;;;;;;;;;;19.40;99.90;;;;;;5034922;28;20061;-67
2022/09/13 03:16:22;;;;;;;7.55;4.78;;;19.50;99.90;;;;;;5034813;28;19981;-67
2022/09/13 03:19:05;;;;;;;6.30;4.75;;;19.40;99.90;;;;;;5034087;28;20049;-67
2022/09/13 03:21:46;;;;;;;7.78;5.32;;;19.50;99.90;;;;;;5034829;28;20037;-68
2022/09/13 03:24:21;;;;;;;5.93;4.80;;;19.50;99.90;;;;;;5034565;28;20083;-67
2022/09/13 03:26:53;;;;;;;5.40;4.90;;;19.50;99.90;;;;;;5033656;28;20095;-67
2022/09/13 03:29:32;;;;;;;6.57;5.40;;;19.50;99.90;;;;;;5033493;28;20021;-68
2022/09/13 03:32:34;;;;;;;10.25;5.38;;;19.50;99.90;;;;;;5035225;28;20087;-67
2022/09/13 03:35:11;;;;;;;6.88;5.50;;;19.50;99.90;;;;;;5034103;28;20104;-67
2022/09/13 03:38:05;;;;;;;9.07;4.90;;;19.50;99.90;;;;;;5034757;28;20033;-67
2022/09/13 03:40:33;;;;;;;6.03;5.38;;;19.50;99.90;;;;;;5033862;28;20014;-67
2022/09/13 03:43:06;;;;;;;7.47;5.63;;;19.50;99.90;;;;;;5032286;28;20033;-67
2022/09/13 03:45:40;;;;;;;6.97;5.20;;;19.50;99.90;;;;;;5034051;28;20382;-67
2022/09/13 03:48:06;;;;;;;8.07;5.03;;;19.50;99.90;;;;;;5034258;28;20091;-67
2022/09/13 03:50:33;;;;;;;7.57;5.45;;;19.40;99.90;;;;;;5034562;28;20060;-67
2022/09/13 03:53:06;;;;;;;6.38;5.32;;;19.40;99.90;;;;;;5033497;28;20025;-67
2022/09/13 03:55:34;;;;;;;5.55;5.05;;;19.40;99.90;;;;;;5034221;28;20099;-67
2022/09/13 03:58:00;;;;;;;5.97;5.32;;;19.40;99.90;;;;;;5034836;28;20358;-67
2022/09/13 04:00:25;;;;;;;5.78;5.30;;;19.40;99.90;;;;;;5034412;28;20075;-67
2022/09/13 04:02:51;;;;;;;7.05;5.47;;;19.40;99.90;;;;;;5034244;28;20437;-67
2022/09/13 04:05:17;;;;;;;9.48;4.97;;;19.30;99.90;;;;;;5033142;28;20164;-67
2022/09/13 04:07:42;;;;;;;9.55;5.50;;;19.30;99.90;;;;;;5033679;28;20025;-67
2022/09/13 04:10:09;;;;;;;6.07;5.32;;;19.40;99.90;;;;;;5033524;28;20048;-67
2022/09/13 04:12:35;;;;;;;5.70;4.80;;;19.40;99.90;;;;;;5033807;28;20449;-68
2022/09/13 04:15:00;;;;;;;8.57;4.88;;;19.40;99.90;;;;;;5034255;28;20533;-68
2022/09/13 04:17:26;;;;;;;7.97;4.80;;;19.30;99.90;;;;;;5032636;28;20135;-67
2022/09/13 04:19:52;;;;;;;8.43;5.10;;;19.40;99.90;;;;;;5033512;28;20386;-67
2022/09/13 04:22:18;;;;;;;9.25;5.28;;;19.40;99.90;;;;;;5033543;28;20044;-67
2022/09/13 04:24:44;;;;;;;8.75;5.00;;;19.40;99.90;;;;;;5033035;28;20025;-67
2022/09/13 04:27:09;;;;;;;5.22;4.75;;;19.40;99.90;;;;;;5034135;28;20468;-68
2022/09/13 04:29:35;;;;;;;8.82;5.10;;;19.30;99.90;;;;;;5034109;28;20025;-67
2022/09/13 04:32:01;;;;;;;7.80;5.22;;;19.30;99.90;;;;;;5032185;28;20026;-67
2022/09/13 04:34:27;;;;;;;7.55;5.20;;;19.30;99.90;;;;;;5033924;28;20075;-68
2022/09/13 04:36:53;;;;;;;5.85;4.90;;;19.40;99.90;;;;;;5033473;28;20025;-68
2022/09/13 04:39:19;;;;;;;7.82;5.25;;;19.40;99.90;;;;;;5033141;28;20026;-68
2022/09/13 04:41:46;;;;;;;5.22;4.72;;;19.30;99.90;;;;;;5031635;28;20041;-68
2022/09/13 04:44:15;;;;;;;7.47;5.20;;;19.30;99.90;;;;;;5033788;28;20083;-68
2022/09/13 04:46:41;;;;;;;8.63;5.60;;;19.30;99.90;;;;;;5032459;28;20025;-68
2022/09/13 04:49:09;;;;;;;6.97;4.05;;;19.40;99.90;;;;;;5033687;28;20021;-68
2022/09/13 04:51:35;;;;;;;5.63;4.88;;;19.30;99.90;;;;;;5032946;28;20024;-68
2022/09/13 04:54:00;;;;;;;6.85;5.25;;;19.30;99.90;;;;;;5032661;28;20456;-69
2022/09/13 04:56:26;;;;;;;5.03;4.47;;;19.30;99.90;;;;;;5033030;28;20030;-68
2022/09/13 04:58:53;;;;;;;5.93;5.43;;;19.30;99.90;;;;;;5032899;28;20477;-69
2022/09/13 05:01:20;;;;;;;7.40;5.50;;;19.40;99.90;;;;;;5033015;28;20554;-68
2022/09/13 05:03:46;;;;;;;5.80;5.13;;;19.40;99.90;;;;;;5033496;28;20033;-69
2022/09/13 05:06:14;;;;;;;8.60;4.63;;;19.40;99.90;;;;;;5032655;28;20505;-69
2022/09/13 05:08:40;;;;;;;8.73;4.70;;;19.40;99.90;;;;;;5032373;28;20458;-68
2022/09/13 05:11:07;;;;;;;7.43;4.82;;;19.40;99.90;;;;;;5042246;28;20056;-69
2022/09/13 05:13:33;;;;;;;8.45;4.18;;;19.40;99.90;;;;;;5052662;28;20124;-70
2022/09/13 05:16:02;;;;;;;6.38;4.55;;;19.40;99.90;;;;;;5052766;28;20167;-68
2022/09/13 05:18:29;;;;;;;7.13;4.68;;;19.40;99.90;;;;;;5042537;28;20091;-68
2022/09/13 05:20:57;;;;;;;6.35;5.00;;;19.40;99.90;;;;;;5032348;28;20494;-68
2022/09/13 05:23:24;;;;;;;8.57;5.60;;;19.30;99.90;;;;;;5031973;28;20037;-68
2022/09/13 05:25:54;;;;;;;7.72;5.10;;;19.30;99.90;;;;;;5033094;28;20017;-72
2022/09/13 05:28:21;;;;;;;7.95;5.43;;;19.30;99.90;;;;;;5042369;28;20386;-67
2022/09/13 05:31:09;;;;;;;8.40;4.88;;;19.30;99.90;;;;;;5032805;28;20031;-67
2022/09/13 05:33:36;;;;;;;6.80;5.00;;;19.30;99.90;;;;;;5032573;28;20052;-68
2022/09/13 05:36:04;;;;;;;7.88;5.03;;;19.10;99.90;;;;;;5032313;28;20025;-67
2022/09/13 05:38:29;;;;;;;7.53;5.55;;;19.20;99.90;;;;;;5032272;28;20014;-68
2022/09/13 05:40:57;;;;;;;7.55;4.85;;;19.30;99.90;;;;;;5032731;28;20032;-68
2022/09/13 05:43:27;;;;;;;8.10;5.15;;;19.30;99.90;;;;;;5028140;28;20030;-68
2022/09/13 05:46:09;;;;;;;8.75;5.15;;;19.30;99.90;;;;;;5032192;28;20108;-68
2022/09/13 05:48:35;;;;;;;7.10;5.38;;;19.30;99.90;;;;;;5032726;28;20086;-68
2022/09/13 05:51:12;;;;;;;5.80;4.53;;;19.30;99.90;;;;;;5032806;28;20021;-68
2022/09/13 05:53:39;;;;;;;7.53;5.30;;;19.30;99.90;;;;;;5029454;28;20116;-68
2022/09/13 05:56:07;;;;;;;5.25;4.78;;;19.30;99.90;;;;;;5032062;28;20041;-68
2022/09/13 05:58:37;;;;;;;5.90;5.30;;;19.20;99.90;;;;;;5037990;28;20049;-67
2022/09/13 06:01:02;;;;;;;5.32;4.82;;;19.30;99.90;;;;;;5032000;28;20381;-68
2022/09/13 06:03:28;;;;;;;5.70;4.88;;;19.30;99.90;;;;;;5032193;28;20478;-67
2022/09/13 06:05:56;;;;;;;7.38;4.60;;;19.40;99.90;;;;;;5031930;28;20021;-67
2022/09/13 06:08:23;;;;;;;5.68;4.60;;;19.40;99.90;;;;;;5031651;28;20021;-68
2022/09/13 06:11:02;;;;;;;4.80;4.40;;;19.40;99.90;;;;;;5032149;28;20091;-67
2022/09/13 06:13:29;;;;;;;9.02;4.38;;;19.40;99.90;;;;;;5031588;28;20120;-67
2022/09/13 06:15:56;;;;;;;9.88;4.40;;;19.40;99.90;;;;;;5039105;28;20029;-68
2022/09/13 06:18:23;;;;;;;7.93;4.40;;;19.50;99.90;;;;;;5042629;28;20034;-67
2022/09/13 06:20:49;;;;;;;6.43;4.47;;;19.40;99.90;;;;;;5031991;28;20064;-68
2022/09/13 06:23:15;;;;;;;12.45;4.82;;;19.40;99.90;;;;;;5031753;28;20025;-68
2022/09/13 06:25:41;;;;;;;11.10;4.80;;;19.40;99.90;;;;;;5032171;28;20025;-67
2022/09/13 06:28:07;;;;;;;9.95;4.68;;;19.50;99.90;;;;;;5033273;28;20440;-67
2022/09/13 06:30:33;;;;;;;9.95;4.57;;;19.50;99.90;;;;;;5049098;28;20469;-67
2022/09/13 06:32:58;;;;;;;8.90;4.72;;;19.60;99.90;;;;;;5055767;28;20027;-67
2022/09/13 06:35:25;;;;;;;8.73;4.95;;;19.60;99.90;;;;;;5015995;28;20030;-67
2022/09/13 06:37:55;;;;;;;10.55;4.85;;;19.60;99.90;;;;;;5021273;28;20507;-67
2022/09/13 06:40:21;;;;;;;7.82;4.90;;;19.70;99.90;;;;;;5055714;28;20033;-67
2022/09/13 06:42:47;;;;;;;4.60;4.20;;;19.70;99.90;;;;;;5051789;28;20171;-67
2022/09/13 06:45:13;;;;;;;5.75;4.10;;;19.70;99.90;;;;;;5035346;28;20104;-67
2022/09/13 06:47:38;;;;;;;8.85;4.38;;;19.70;99.90;;;;;;5036834;28;20029;-68
2022/09/13 06:50:06;;;;;;;7.55;3.97;;;19.80;99.90;;;;;;5042990;28;20488;-67
2022/09/13 06:52:32;;;;;;;10.23;4.90;;;19.80;99.90;;;;;;5035178;28;20109;-67
2022/09/13 06:54:58;;;;;;;7.28;4.18;;;19.90;99.90;;;;;;5034898;28;20025;-67
2022/09/13 06:57:23;;;;;;;9.48;4.28;;;19.90;99.90;;;;;;5035819;28;20386;-67
2022/09/13 06:59:49;;;;;;;9.38;4.80;;;19.90;99.90;;;;;;5035311;28;20032;-67
2022/09/13 07:02:15;;;;;;;7.03;5.38;;;19.90;99.90;;;;;;5047092;28;20033;-68
2022/09/13 07:04:40;;;;;;;9.45;5.15;;;19.90;99.90;;;;;;5044250;28;20037;-67
2022/09/13 07:07:06;;;;;;;10.10;4.95;;;19.90;99.90;;;;;;5034674;28;20485;-67
2022/09/13 07:09:33;;;;;;;9.50;4.90;;;20.00;99.90;;;;;;5034388;28;20017;-68
2022/09/13 07:11:58;;;;;;;9.93;5.35;;;20.00;99.90;;;;;;5036217;28;20022;-67
2022/09/13 07:14:26;;;;;;;7.82;4.80;;;20.10;99.90;;;;;;5034460;28;20087;-68
2022/09/13 07:16:53;;;;;;;6.32;4.55;;;20.10;99.90;;;;;;5028870;28;20026;-68
2022/09/13 07:19:21;;;;;;;9.30;5.03;;;20.10;99.90;;;;;;5032710;28;20022;-68
2022/09/13 07:21:48;;;;;;;6.38;5.00;;;20.20;99.90;;;;;;5024696;28;20039;-67
2022/09/13 07:24:15;;;;;;;10.30;4.95;;;20.20;99.90;;;;;;5032477;28;20021;-67
2022/09/13 07:26:41;;;;;;;23.70;5.43;;;20.20;99.90;;;;;;5032307;28;20025;-67
2022/09/13 07:29:10;;;;;;;20.45;5.40;;;20.20;99.90;;;;;;5034760;28;20377;-67
2022/09/13 07:31:38;;;;;;;10.98;4.97;;;20.30;99.90;;;;;;5031569;28;20044;-67
2022/09/13 07:34:07;;;;;;;13.38;5.55;;;20.40;99.90;;;;;;5032952;28;20025;-67
2022/09/13 07:36:35;;;;;;;9.15;5.70;;;20.40;99.90;;;;;;5033535;28;20421;-67
2022/09/13 07:39:01;;;;;;;10.50;5.70;;;20.50;99.90;;;;;;5037805;28;20037;-67
2022/09/13 07:41:28;;;;;;;6.00;5.22;;;20.50;99.90;;;;;;5033944;28;20069;-67
2022/09/13 07:43:55;;;;;;;6.07;5.30;;;20.50;99.90;;;;;;5031581;28;20477;-67
2022/09/13 07:46:26;;;;;;;7.68;4.25;;;20.60;99.90;;;;;;5034096;28;20025;-67
2022/09/13 07:48:54;;;;;;;9.93;5.70;;;20.70;99.90;;;;;;5033720;28;20014;-68
2022/09/13 07:51:22;;;;;;;11.65;5.88;;;20.70;99.90;;;;;;5033888;28;20025;-67
2022/09/13 07:53:49;;;;;;;12.27;5.93;;;20.80;99.90;;;;;;5033881;28;20025;-67
2022/09/13 07:56:19;;;;;;;12.85;5.55;;;20.80;99.90;;;;;;5031645;28;20024;-67
2022/09/13 07:58:46;;;;;;;9.68;4.88;;;20.90;99.90;;;;;;5033651;28;20068;-67
2022/09/13 08:01:22;;;;;;;9.32;6.55;;;20.90;99.90;;;;;;5033846;28;20075;-67
2022/09/13 08:03:56;;;;;;;9.60;6.70;;;20.90;99.90;;;;;;5034465;28;20351;-67
2022/09/13 08:06:24;;;;;;;27.05;7.22;;;20.90;99.90;;;;;;5030252;28;20049;-67
2022/09/13 08:08:49;;;;;;;13.02;7.72;;;21.00;99.90;;;;;;5032719;28;20392;-67
2022/09/13 08:11:19;;;;;;;11.13;6.70;;;21.10;99.90;;;;;;5033459;28;20092;-68
2022/09/13 08:13:48;;;;;;;13.88;5.78;;;21.20;99.90;;;;;;5031112;28;20029;-67
2022/09/13 08:16:16;;;;;;;8.30;5.47;;;21.30;99.90;;;;;;5031401;28;20032;-68
2022/09/13 08:18:46;;;;;;;11.48;5.63;;;21.30;99.90;;;;;;5033204;28;20013;-68
2022/09/13 08:21:12;;;;;;;19.88;6.72;;;21.30;99.90;;;;;;5039850;28;20549;-68
2022/09/13 08:23:38;;;;;;;11.57;7.32;;;21.40;99.90;;;;;;5046973;28;20132;-68
2022/09/13 08:26:06;;;;;;;11.00;8.18;;;21.40;99.90;;;;;;5033516;28;20033;-67
2022/09/13 08:28:33;;;;;;;13.48;7.10;;;21.40;99.90;;;;;;5033266;28;20033;-68
2022/09/13 08:31:07;;;;;;;15.57;9.00;;;21.40;99.90;;;;;;5032955;28;20025;-67
2022/09/13 08:33:34;;;;;;;12.23;8.38;;;21.50;99.90;;;;;;5033586;28;20083;-68
2022/09/13 08:36:00;;;;;;;21.30;7.95;;;21.60;99.90;;;;;;5032558;28;20029;-67
2022/09/13 08:38:25;;;;;;;42.22;10.32;;;21.60;99.90;;;;;;5037200;28;20104;-68
2022/09/13 08:41:04;;;;;;;20.00;7.65;;;21.70;99.90;;;;;;5032650;28;20540;-68
2022/09/13 08:43:54;;;;;;;27.08;9.50;;;21.80;99.90;;;;;;5032186;28;20508;-68
2022/09/13 08:46:28;;;;;;;20.17;10.23;;;21.90;99.90;;;;;;5029454;28;20510;-67
2022/09/13 08:49:01;;;;;;;16.60;10.70;;;21.90;99.90;;;;;;5025600;28;20371;-71
2022/09/13 08:51:32;;;;;;;18.00;9.82;;;22.00;99.90;;;;;;5022071;28;20080;-69
2022/09/13 08:53:58;;;;;;;26.85;10.70;;;22.10;99.90;;;;;;5027389;28;20033;-70
2022/09/13 08:56:35;;;;;;;19.60;12.10;;;22.10;99.90;;;;;;5020542;28;20033;-71
2022/09/13 08:59:25;;;;;;;14.90;10.65;;;22.20;99.90;;;;;;5023450;28;20053;-70
2022/09/13 09:02:12;;;;;;;22.73;10.80;;;22.30;99.90;;;;;;5023405;28;20034;-71
2022/09/13 09:04:58;;;;;;;18.42;10.05;;;22.30;99.90;;;;;;5019841;28;20024;-67
2022/09/13 09:07:29;;;;;;;18.02;10.90;;;22.30;99.90;;;;;;5025748;28;20108;-67
2022/09/13 09:10:10;;;;;;;16.23;11.65;;;22.40;99.90;;;;;;5023879;28;20014;-67
2022/09/13 09:12:42;;;;;;;16.05;10.57;;;22.30;99.90;;;;;;5022611;28;20102;-70
2022/09/13 09:15:10;;;;;;;11.65;8.18;;;22.40;99.90;;;;;;5024096;28;20018;-71
2022/09/13 09:17:56;;;;;;;17.20;8.95;;;22.50;99.90;;;;;;5029766;28;20068;-67
2022/09/13 09:20:32;;;;;;;12.68;7.60;;;22.50;99.90;;;;;;5027294;28;20029;-68
2022/09/13 09:23:03;;;;;;;15.57;10.75;;;22.60;99.90;;;;;;5026604;28;20108;-68
2022/09/13 09:25:30;;;;;;;15.95;11.93;;;22.60;99.90;;;;;;5030412;28;20683;-68
2022/09/13 09:27:58;;;;;;;15.77;10.30;;;22.70;99.90;;;;;;5027574;28;20013;-67
2022/09/13 09:30:31;;;;;;;12.48;10.73;;;22.80;99.90;;;;;;5030363;28;20022;-67
2022/09/13 09:33:24;;;;;;;14.77;11.52;;;22.90;99.90;;;;;;5028683;28;20018;-68
2022/09/13 09:36:06;;;;;;;10.05;8.77;;;23.10;99.90;;;;;;5027912;28;20356;-67
2022/09/13 09:38:39;;;;;;;17.20;7.63;;;23.20;99.90;;;;;;5023679;28;20033;-68
2022/09/13 09:41:13;;;;;;;15.65;7.63;;;23.40;99.90;;;;;;5027041;28;20021;-68
2022/09/13 09:43:58;;;;;;;9.43;7.25;;;23.40;99.90;;;;;;5027080;28;20075;-73
2022/09/13 09:46:27;;;;;;;9.85;6.80;;;23.40;99.90;;;;;;5033175;28;20029;-70
2022/09/13 09:49:00;;;;;;;12.98;8.07;;;23.50;99.90;;;;;;5024335;28;20021;-70
2022/09/13 09:51:27;;;;;;;10.48;7.60;;;23.50;99.90;;;;;;5023339;28;20108;-69
2022/09/13 09:54:01;;;;;;;17.92;9.20;;;23.70;99.90;;;;;;5027849;28;20076;-70
2022/09/13 09:56:31;;;;;;;11.07;7.65;;;23.70;99.90;;;;;;5028992;28;20022;-70
2022/09/13 09:58:57;;;;;;;10.52;7.13;;;23.80;99.90;;;;;;5029183;28;20053;-70
2022/09/13 10:01:36;;;;;;;10.07;6.18;;;23.80;99.90;;;;;;5027961;28;20049;-69
2022/09/13 10:04:09;;;;;;;8.07;6.80;;;24.10;99.90;;;;;;5026550;28;20140;-69
2022/09/13 10:06:42;;;;;;;54.75;9.27;;;24.20;99.90;;;;;;5023695;28;20486;-70
2022/09/13 10:09:21;;;;;;;11.10;7.25;;;24.40;99.90;;;;;;5030577;28;20040;-70
2022/09/13 10:11:56;;;;;;;11.13;7.13;;;24.50;99.90;;;;;;5024992;28;20112;-71
2022/09/13 10:14:36;;;;;;;15.00;7.25;;;24.60;99.90;;;;;;5027417;28;20018;-68
2022/09/13 10:17:22;;;;;;;12.80;7.90;;;24.60;99.90;;;;;;5022431;28;20030;-69
2022/09/13 10:19:54;;;;;;;8.07;6.97;;;24.80;99.90;;;;;;5008244;28;20026;-68
2022/09/13 10:22:21;;;;;;;7.88;4.43;;;24.70;99.90;;;;;;5032654;28;20158;-67
2022/09/13 10:24:49;;;;;;;7.35;4.70;;;24.80;99.90;;;;;;5025520;28;20367;-68
2022/09/13 10:27:21;;;;;;;13.32;5.95;;;24.70;99.90;;;;;;5025476;28;20453;-68
2022/09/13 10:29:50;;;;;;;4.10;3.67;;;24.70;99.90;;;;;;5028195;28;20112;-68
2022/09/13 10:32:18;;;;;;;14.73;6.22;;;24.60;99.90;;;;;;5032249;28;20022;-69
2022/09/13 10:34:47;;;;;;;8.43;6.55;;;24.70;99.90;;;;;;5030352;28;20021;-68
2022/09/13 10:37:18;;;;;;;6.80;5.32;;;24.90;99.90;;;;;;5027731;28;20080;-68
2022/09/13 10:40:38;;;;;;;8.07;5.97;;;25.10;99.90;;;;;;5033710;28;20467;-68
2022/09/13 10:43:14;;;;;;;11.25;5.85;;;25.20;99.90;;;;;;5030739;28;20524;-69
2022/09/13 10:45:41;;;;;;;12.05;5.82;;;25.50;99.90;;;;;;5030279;28;20045;-68
2022/09/13 10:48:14;;;;;;;8.18;7.10;;;25.60;99.90;;;;;;5028494;28;20124;-68
2022/09/13 10:50:58;;;;;;;7.90;7.03;;;25.70;99.90;;;;;;5028581;28;20398;-69
2022/09/13 10:53:34;;;;;;;9.70;7.00;;;25.80;99.90;;;;;;5029900;28;20033;-68
2022/09/13 10:56:01;;;;;;;9.27;6.80;;;25.90;99.90;;;;;;5030513;28;20021;-69
2022/09/13 10:58:27;;;;;;;7.47;6.10;;;26.00;99.90;;;;;;5029462;28;20060;-70
2022/09/13 11:01:27;;;;;;;8.95;5.28;;;26.10;99.90;;;;;;5029947;28;20491;-70
2022/09/13 11:04:13;;;;;;;9.68;4.50;;;26.20;99.90;;;;;;5031690;28;20048;-70
2022/09/13 11:07:13;;;;;;;9.50;5.82;;;26.10;99.90;;;;;;5033673;28;20562;-70
2022/09/13 11:10:00;;;;;;;7.80;4.68;;;26.10;99.90;;;;;;5031020;28;20040;-69
2022/09/13 11:12:44;;;;;;;6.45;4.03;;;26.20;99.90;;;;;;5027908;28;20042;-69
2022/09/13 11:15:25;;;;;;;19.83;4.93;;;26.20;99.90;;;;;;5027596;28;20642;-69
2022/09/13 11:18:10;;;;;;;6.03;5.43;;;26.40;99.90;;;;;;5034567;28;20039;-69
2022/09/13 11:21:13;;;;;;;7.00;5.25;;;26.50;99.90;;;;;;5035038;28;20017;-69
2022/09/13 11:23:41;;;;;;;;;;;26.40;99.90;;;;;;5032228;28;20052;-69
2022/09/13 11:26:09;;;;;;;6.35;4.18;;;26.40;99.90;;;;;;5023182;28;19913;-69
2022/09/13 11:29:13;;;;;;;6.35;5.13;;;26.50;99.90;;;;;;5025629;28;20478;-69
2022/09/13 11:31:45;;;;;;;;;;;26.50;99.90;;;;;;5028245;28;20038;-70
2022/09/13 11:34:32;;;;;;;7.40;4.15;;;26.60;99.90;;;;;;5029010;28;19963;-70
2022/09/13 11:37:04;;;;;;;7.47;4.13;;;27.00;99.90;;;;;;5030436;28;20390;-70
2022/09/13 11:39:48;;;;;;;8.50;3.83;;;27.10;99.90;;;;;;5025342;28;20402;-69
2022/09/13 11:42:25;;;;;;;5.47;4.13;;;27.20;99.90;;;;;;5024263;28;20080;-70
2022/09/13 11:45:00;;;;;;;9.23;4.63;;;27.30;99.90;;;;;;5023953;28;20075;-69
2022/09/13 11:47:37;;;;;;;4.93;4.15;;;27.20;99.90;;;;;;5025339;28;20073;-69
2022/09/13 11:50:42;;;;;;;5.10;3.80;;;27.10;99.90;;;;;;5027120;28;20026;-70
2022/09/13 11:53:20;;;;;;;5.15;4.57;;;27.00;99.90;;;;;;5029957;28;20074;-69
2022/09/13 11:55:56;;;;;;;4.78;4.03;;;27.00;99.90;;;;;;5027179;28;20021;-69
2022/09/13 11:58:47;;;;;;;3.47;3.17;;;27.00;99.90;;;;;;5028373;28;20131;-69
2022/09/13 12:01:20;;;;;;;4.13;3.25;;;26.90;99.90;;;;;;5024358;28;20021;-69
2022/09/13 12:03:45;;;;;;;;;;;26.90;99.90;;;;;;5032544;28;20083;-69
2022/09/13 12:06:23;;;;;;;4.55;3.00;;;27.00;99.90;;;;;;5020638;28;19909;-69
2022/09/13 12:08:56;;;;;;;7.95;2.88;;;27.10;99.90;;;;;;5026199;28;20022;-69
2022/09/13 12:11:26;;;;;;;5.95;3.35;;;27.30;99.90;;;;;;5025467;28;20116;-69
2022/09/13 12:13:59;;;;;;;3.95;3.45;;;27.40;99.90;;;;;;5031556;28;20033;-69
2022/09/13 12:16:34;;;;;;;7.07;3.88;;;27.40;99.90;;;;;;5029928;28;20030;-69
2022/09/13 12:19:06;;;;;;;4.68;3.47;;;27.50;99.90;;;;;;5034911;28;20021;-70
2022/09/13 12:21:36;;;;;;;5.93;3.83;;;27.40;99.90;;;;;;5026544;28;20108;-69
2022/09/13 12:24:17;;;;;;;6.60;3.22;;;27.40;99.90;;;;;;5035415;28;20029;-69
2022/09/13 12:26:55;;;;;;;7.20;2.83;;;27.50;99.90;;;;;;5022623;28;20033;-69
2022/09/13 12:29:44;;;;;;;5.78;2.75;;;27.50;99.90;;;;;;5029965;28;20434;-69
2022/09/13 12:32:10;;;;;;;18.27;4.32;;;27.60;99.90;;;;;;5022852;28;20478;-69
2022/09/13 12:35:06;;;;;;;4.18;3.13;;;27.60;99.90;;;;;;5031419;28;20381;-69
2022/09/13 12:37:49;;;;;;;4.05;2.65;;;27.60;99.90;;;;;;5027663;28;20035;-69
2022/09/13 12:40:27;;;;;;;3.53;2.65;;;27.30;99.90;;;;;;5027462;28;20356;-69
2022/09/13 12:43:26;;;;;;;3.28;2.47;;;27.00;99.90;;;;;;5029387;28;20037;-69
2022/09/13 12:46:08;;;;;;;6.40;2.97;;;26.80;99.90;;;;;;5028914;28;20104;-69
2022/09/13 12:49:01;;;;;;;3.30;2.85;;;26.60;99.90;;;;;;5038292;28;20023;-69
2022/09/13 12:51:47;;;;;;;7.03;3.13;;;26.70;99.90;;;;;;5039947;28;20123;-69
2022/09/13 12:54:40;;;;;;;5.10;3.15;;;26.70;99.90;;;;;;5034232;28;20029;-69
2022/09/13 12:57:27;;;;;;;2.47;2.28;;;26.70;99.90;;;;;;5044926;28;20021;-69
2022/09/13 13:00:12;;;;;;;3.33;2.08;;;26.70;99.90;;;;;;5045752;28;20036;-69
2022/09/13 13:02:49;;;;;;;3.92;2.78;;;26.80;99.90;;;;;;5019519;28;20567;-69
2022/09/13 13:05:37;;;;;;;4.38;2.95;;;26.80;99.90;;;;;;5038687;28;20033;-69
2022/09/13 13:08:16;;;;;;;5.90;3.80;;;26.90;99.90;;;;;;5039031;28;20033;-70
2022/09/13 13:10:42;;;;;;;7.40;4.45;;;26.90;99.90;;;;;;5019084;28;20032;-69
2022/09/13 13:13:13;;;;;;;5.43;2.97;;;26.90;99.90;;;;;;5043493;28;20033;-69
2022/09/13 13:15:42;;;;;;;21.58;4.32;;;26.90;99.90;;;;;;5034006;28;20083;-70